createdAt,value
2023-05-04T00:03:01.959Z,2.28
2023-05-04T00:07:03.822Z,3.42
2023-05-04T00:11:05.583Z,4.18
2023-05-04T00:15:07.758Z,5.90
2023-05-04T00:19:09.518Z,3.85
2023-05-04T00:23:11.285Z,5.10
2023-05-04T00:27:13.096Z,4.13
2023-05-04T00:31:15.225Z,4.07
2023-05-04T00:35:17.016Z,2.58
2023-05-04T00:39:18.794Z,2.95
2023-05-04T00:43:20.654Z,3.90
2023-05-04T00:47:23.131Z,4.18
2023-05-04T00:51:26.548Z,6.32
2023-05-04T00:55:29.391Z,4.30
2023-05-04T00:59:31.209Z,4.60
2023-05-04T01:03:33.733Z,4.70
2023-05-04T01:07:53.541Z,7.03
2023-05-04T01:12:08.412Z,3.50
2023-05-04T01:16:10.400Z,3.70
2023-05-04T01:20:12.364Z,2.72
2023-05-04T01:24:14.352Z,4.43
2023-05-04T01:28:24.994Z,6.18
2023-05-04T01:32:29.402Z,2.78
2023-05-04T01:36:33.523Z,2.50
2023-05-04T01:40:35.326Z,3.35
2023-05-04T01:44:37.584Z,2.15
2023-05-04T01:48:39.440Z,2.50
2023-05-04T01:52:41.185Z,3.40
2023-05-04T01:56:42.925Z,3.75
2023-05-04T02:00:44.710Z,3.75
2023-05-04T02:04:46.994Z,3.50
2023-05-04T02:08:48.696Z,3.75
2023-05-04T02:12:50.565Z,4.38
2023-05-04T02:16:52.301Z,4.07
2023-05-04T02:20:54.136Z,2.63
2023-05-04T02:24:56.393Z,4.18
2023-05-04T02:28:58.077Z,5.25
2023-05-04T02:32:59.810Z,7.22
2023-05-04T02:37:01.556Z,5.47
2023-05-04T02:41:03.282Z,4.95
2023-05-04T02:45:07.428Z,6.07
2023-05-04T02:49:09.240Z,7.22
2023-05-04T02:53:10.924Z,8.48
2023-05-04T02:57:12.672Z,5.82
2023-05-04T03:01:14.398Z,2.20
2023-05-04T03:05:16.242Z,5.15
2023-05-04T03:09:18.216Z,6.13
2023-05-04T03:13:19.942Z,3.17
2023-05-04T03:17:22.546Z,2.55
2023-05-04T03:21:26.745Z,3.25
2023-05-04T03:25:28.486Z,2.40
2023-05-04T03:29:30.953Z,3.00
2023-05-04T03:33:33.375Z,2.92
2023-05-04T03:37:35.681Z,3.10
2023-05-04T03:41:37.840Z,3.13
2023-05-04T03:45:39.952Z,3.38
2023-05-04T03:49:41.914Z,2.67
2023-05-04T03:53:44.990Z,2.05
2023-05-04T03:57:49.331Z,2.30
2023-05-04T04:01:51.670Z,2.10
2023-05-04T04:05:53.640Z,2.53
2023-05-04T04:09:55.863Z,3.17
2023-05-04T04:13:57.760Z,3.85
2023-05-04T04:17:59.740Z,2.50
2023-05-04T04:22:02.111Z,2.90
2023-05-04T04:26:06.233Z,1.77
2023-05-04T04:30:08.671Z,1.63
2023-05-04T04:34:10.598Z,3.55
2023-05-04T04:38:12.478Z,3.78
2023-05-04T04:42:14.757Z,4.93
2023-05-04T04:46:16.919Z,3.58
2023-05-04T04:50:19.343Z,5.40
2023-05-04T04:54:21.414Z,2.67
2023-05-04T04:58:23.560Z,1.80
2023-05-04T05:02:25.514Z,1.95
2023-05-04T05:06:27.304Z,4.28
2023-05-04T05:10:29.020Z,3.85
2023-05-04T05:14:31.815Z,2.80
2023-05-04T05:18:33.505Z,2.78
2023-05-04T05:22:35.282Z,2.35
2023-05-04T05:26:36.994Z,2.03
2023-05-04T05:30:38.772Z,1.85
2023-05-04T05:34:42.390Z,2.00
2023-05-04T05:38:44.176Z,3.38
2023-05-04T05:42:46.407Z,4.90
2023-05-04T05:46:48.144Z,4.28
2023-05-04T05:50:50.253Z,3.30
2023-05-04T05:54:51.964Z,3.63
2023-05-04T05:58:53.777Z,4.28
2023-05-04T06:02:56.084Z,3.53
2023-05-04T06:06:57.911Z,6.78
2023-05-04T06:10:59.755Z,7.45
2023-05-04T06:15:01.513Z,7.13
2023-05-04T06:19:05.720Z,7.57
2023-05-04T06:23:07.435Z,8.25
2023-05-04T06:27:09.779Z,7.20
2023-05-04T06:31:12.180Z,7.80
2023-05-04T06:35:14.003Z,5.78
2023-05-04T06:39:15.875Z,7.25
2023-05-04T06:43:17.559Z,7.65
2023-05-04T06:47:19.320Z,7.53
2023-05-04T06:51:21.138Z,6.15
2023-05-04T06:55:22.856Z,5.57
2023-05-04T06:59:24.593Z,7.63
2023-05-04T07:03:27.050Z,7.80
2023-05-04T07:07:28.784Z,9.32
2023-05-04T07:11:31.022Z,8.65
2023-05-04T07:15:33.926Z,7.32
2023-05-04T07:19:36.079Z,7.75
2023-05-04T07:23:38.143Z,7.90
2023-05-04T07:27:41.424Z,7.70
2023-05-04T07:31:43.234Z,7.68
2023-05-04T07:35:44.974Z,9.68
2023-05-04T07:39:46.722Z,8.63
2023-05-04T07:43:48.512Z,11.73
2023-05-04T07:47:51.884Z,10.50
2023-05-04T07:51:54.586Z,7.60
2023-05-04T07:55:57.517Z,7.75
2023-05-04T07:59:59.349Z,11.02
2023-05-04T08:04:01.024Z,8.55
2023-05-04T08:08:03.013Z,10.52
2023-05-04T08:12:05.047Z,9.55
2023-05-04T08:16:07.396Z,9.70
2023-05-04T08:20:10.161Z,10.77
2023-05-04T08:24:11.936Z,10.70
2023-05-04T08:28:13.716Z,9.05
2023-05-04T08:32:15.409Z,10.43
2023-05-04T08:36:17.600Z,12.85
2023-05-04T08:40:19.953Z,12.23
2023-05-04T08:44:22.015Z,10.00
2023-05-04T08:48:23.841Z,8.60
2023-05-04T08:52:26.423Z,9.20
2023-05-04T08:56:28.237Z,7.68
2023-05-04T09:00:30.877Z,7.28
2023-05-04T09:04:32.852Z,8.35
2023-05-04T09:08:34.885Z,8.57
2023-05-04T09:12:38.029Z,9.07
2023-05-04T09:16:40.017Z,12.10
2023-05-04T09:20:49.468Z,8.90
2023-05-04T09:24:51.208Z,10.15
2023-05-04T09:28:53.111Z,5.78
2023-05-04T09:32:55.293Z,11.25
2023-05-04T09:37:03.741Z,9.82
2023-05-04T09:41:05.490Z,8.38
2023-05-04T09:45:09.040Z,6.95
2023-05-04T09:49:10.922Z,8.15
2023-05-04T09:53:13.350Z,5.25
2023-05-04T09:57:15.781Z,3.63
2023-05-04T10:01:18.250Z,7.25
2023-05-04T10:05:21.825Z,3.63
2023-05-04T10:09:24.297Z,3.58
2023-05-04T10:13:26.683Z,4.47
2023-05-04T10:18:09.737Z,4.72
2023-05-04T10:22:37.282Z,4.38
2023-05-04T10:26:50.841Z,4.10
2023-05-04T10:30:58.278Z,4.80
2023-05-04T10:35:08.207Z,3.85
2023-05-04T10:39:21.091Z,4.22
2023-05-04T10:43:26.330Z,2.63
2023-05-04T10:47:33.169Z,3.50
2023-05-04T10:55:46.144Z,2.83
2023-05-04T10:59:58.869Z,2.30
2023-05-04T11:04:00.676Z,3.45
2023-05-04T11:08:15.057Z,3.13
2023-05-04T11:12:17.439Z,3.53
2023-05-04T11:16:26.951Z,3.13
2023-05-04T11:20:28.696Z,3.75
2023-05-04T11:24:44.312Z,3.20
2023-05-04T11:28:47.083Z,3.38
2023-05-04T11:32:51.745Z,2.40
2023-05-04T11:36:54.585Z,2.80
2023-05-04T11:40:56.392Z,4.30
2023-05-04T11:44:58.199Z,2.30
2023-05-04T11:49:01.093Z,2.40
2023-05-04T11:53:06.828Z,2.38
2023-05-04T11:57:08.602Z,2.38
2023-05-04T12:01:10.568Z,2.95
2023-05-04T12:05:14.092Z,2.22
2023-05-04T12:09:16.621Z,2.25
2023-05-04T12:13:18.471Z,2.47
2023-05-04T12:17:20.927Z,3.22
2023-05-04T12:21:22.718Z,1.92
2023-05-04T12:25:25.014Z,3.33
2023-05-04T12:29:26.815Z,2.58
2023-05-04T12:33:28.597Z,3.13
2023-05-04T12:37:33.542Z,2.88
2023-05-04T12:41:35.461Z,1.98
2023-05-04T12:45:37.189Z,2.17
2023-05-04T12:49:38.847Z,2.47
2023-05-04T12:53:41.227Z,2.20
2023-05-04T12:57:45.057Z,2.30
2023-05-04T13:01:46.846Z,2.00
2023-05-04T13:05:49.811Z,1.98
2023-05-04T13:09:51.531Z,3.25
2023-05-04T13:13:53.423Z,2.50
2023-05-04T13:17:55.225Z,1.90
2023-05-04T13:21:56.954Z,1.90
2023-05-04T13:25:58.800Z,2.00
2023-05-04T13:30:03.864Z,2.13
2023-05-04T13:34:08.661Z,1.80
2023-05-04T13:38:10.323Z,2.00
2023-05-04T13:42:12.648Z,1.98
2023-05-04T13:46:14.436Z,1.80
2023-05-04T13:50:16.611Z,1.80
2023-05-04T13:54:18.366Z,2.20
2023-05-04T13:58:20.321Z,1.80
2023-05-04T14:02:22.723Z,2.00
2023-05-04T14:06:26.072Z,1.73
2023-05-04T14:10:27.883Z,1.40
2023-05-04T14:14:29.670Z,2.15
2023-05-04T14:18:32.929Z,1.70
2023-05-04T14:22:37.214Z,1.80
2023-05-04T14:26:39.858Z,1.40
2023-05-04T14:30:41.613Z,1.45
2023-05-04T14:34:43.370Z,1.00
2023-05-04T14:38:45.772Z,0.98
2023-05-04T14:42:47.585Z,1.45
2023-05-04T14:46:49.396Z,1.30
2023-05-04T14:50:51.192Z,2.72
2023-05-04T14:54:52.980Z,0.90
2023-05-04T14:58:57.257Z,1.30
2023-05-04T15:02:59.118Z,1.52
2023-05-04T15:07:01.374Z,1.45
2023-05-04T15:11:03.194Z,1.50
2023-05-04T15:15:05.495Z,1.10
2023-05-04T15:19:07.537Z,1.05
2023-05-04T15:23:12.602Z,1.73
2023-05-04T15:27:14.350Z,1.35
2023-05-04T15:31:18.046Z,1.25
2023-05-04T15:35:19.887Z,1.20
2023-05-04T15:39:21.628Z,1.08
2023-05-04T15:43:23.477Z,1.10
2023-05-04T15:47:25.288Z,1.65
2023-05-04T15:51:27.604Z,1.20
2023-05-04T15:55:29.403Z,1.10
2023-05-04T15:59:32.293Z,1.05
2023-05-04T16:03:35.165Z,0.90
2023-05-04T16:07:37.206Z,0.80
2023-05-04T16:11:39.007Z,0.93
2023-05-04T16:15:40.850Z,0.75
2023-05-04T16:19:42.690Z,0.60
2023-05-04T16:23:44.711Z,0.65
2023-05-04T16:27:46.485Z,0.80
2023-05-04T16:31:48.511Z,1.42
2023-05-04T16:35:50.717Z,1.60
2023-05-04T16:39:54.543Z,0.80
2023-05-04T16:43:56.766Z,0.88
2023-05-04T16:47:59.116Z,0.60
2023-05-04T16:52:02.009Z,0.65
2023-05-04T16:56:04.349Z,1.25
2023-05-04T17:00:07.759Z,0.82
2023-05-04T17:04:10.971Z,1.25
2023-05-04T17:08:12.790Z,0.63
2023-05-04T17:12:15.292Z,0.95
2023-05-04T17:16:17.201Z,0.80
2023-05-04T17:20:19.002Z,2.63
2023-05-04T17:24:20.887Z,0.90
2023-05-04T17:28:23.038Z,1.02
2023-05-04T17:32:24.871Z,1.42
2023-05-04T17:36:26.742Z,2.33
2023-05-04T17:40:28.879Z,1.00
2023-05-04T17:44:32.797Z,1.45
2023-05-04T17:48:36.383Z,1.13
2023-05-04T17:52:38.271Z,1.83
2023-05-04T17:56:40.019Z,2.20
2023-05-04T18:00:42.011Z,1.95
2023-05-04T18:04:43.816Z,1.58
2023-05-04T18:08:45.942Z,2.10
2023-05-04T18:12:48.076Z,2.33
2023-05-04T18:16:49.859Z,1.10
2023-05-04T18:20:52.378Z,1.85
2023-05-04T18:24:54.256Z,2.40
2023-05-04T18:29:04.214Z,1.38
2023-05-04T18:33:13.281Z,1.95
2023-05-04T18:37:15.080Z,2.05
2023-05-04T18:41:16.921Z,1.40
2023-05-04T18:45:18.779Z,2.85
2023-05-04T18:49:20.622Z,2.22
2023-05-04T18:53:23.902Z,1.60
2023-05-04T18:57:26.459Z,1.85
2023-05-04T19:01:29.038Z,2.15
2023-05-04T19:05:30.861Z,1.80
2023-05-04T19:09:32.853Z,1.95
2023-05-04T19:13:34.689Z,1.35
2023-05-04T19:17:37.102Z,1.55
2023-05-04T19:21:39.320Z,1.48
2023-05-04T19:25:41.084Z,1.20
2023-05-04T19:29:42.930Z,1.70
2023-05-04T19:33:48.874Z,1.20
2023-05-04T19:37:50.811Z,2.63
2023-05-04T19:41:52.664Z,2.22
2023-05-04T19:45:55.751Z,1.48
2023-05-04T19:49:57.556Z,2.10
2023-05-04T19:53:59.726Z,2.00
2023-05-04T19:58:02.201Z,1.60
2023-05-04T20:02:03.966Z,1.75
2023-05-04T20:06:05.858Z,2.60
2023-05-04T20:10:08.527Z,2.53
2023-05-04T20:14:11.245Z,3.00
2023-05-04T20:18:13.109Z,3.58
2023-05-04T20:22:15.421Z,1.70
2023-05-04T20:26:17.200Z,2.38
2023-05-04T20:30:19.020Z,1.40
2023-05-04T20:34:20.817Z,2.50
2023-05-04T20:38:22.600Z,4.85
2023-05-04T20:42:24.581Z,4.03
2023-05-04T20:46:26.705Z,2.70
2023-05-04T20:50:28.600Z,1.50
2023-05-04T20:54:30.996Z,2.30
2023-05-04T20:58:33.434Z,1.60
2023-05-04T21:02:35.401Z,3.38
2023-05-04T21:06:37.222Z,3.38
2023-05-04T21:10:39.204Z,2.90
2023-05-04T21:14:40.949Z,3.15
2023-05-04T21:18:44.781Z,4.15
2023-05-04T21:22:46.682Z,2.40
2023-05-04T21:26:48.627Z,3.92
2023-05-04T21:30:50.426Z,4.82
2023-05-04T21:34:55.266Z,2.83
2023-05-04T21:38:57.215Z,3.65
2023-05-04T21:42:59.662Z,2.78
2023-05-04T21:47:02.719Z,2.50
2023-05-04T21:51:04.725Z,2.40
2023-05-04T21:55:07.001Z,3.30
2023-05-04T21:59:08.790Z,3.17
2023-05-04T22:03:11.345Z,2.33
2023-05-04T22:07:13.113Z,3.03
2023-05-04T22:11:14.898Z,1.92
2023-05-04T22:15:16.798Z,2.30
2023-05-04T22:19:18.574Z,1.67
2023-05-04T22:23:20.310Z,2.78
2023-05-04T22:27:22.201Z,2.47
2023-05-04T22:31:24.067Z,2.53
2023-05-04T22:35:25.962Z,3.38
2023-05-04T22:39:27.705Z,2.92
2023-05-04T22:43:29.469Z,2.58
2023-05-04T22:47:31.813Z,2.92
2023-05-04T22:51:34.219Z,5.35
2023-05-04T22:55:36.080Z,3.58
2023-05-04T22:59:37.870Z,2.38
2023-05-04T23:03:39.743Z,4.53
2023-05-04T23:07:41.596Z,3.97
2023-05-04T23:11:43.344Z,2.42
2023-05-04T23:15:45.149Z,3.38
2023-05-04T23:19:47.499Z,2.72
2023-05-04T23:23:51.613Z,2.80
2023-05-04T23:27:53.367Z,3.33
2023-05-04T23:31:55.176Z,2.47
2023-05-04T23:35:57.028Z,3.20
2023-05-04T23:40:02.045Z,1.60
2023-05-04T23:44:03.900Z,1.85
2023-05-04T23:48:05.973Z,5.72
2023-05-04T23:52:07.833Z,2.80
2023-05-04T23:56:09.647Z,3.65
